sensor_id;sensor_type;location;lat;lon;timestamp;P1;durP1;ratioP1;P2;durP2;ratioP2
29414;SDS011;20303;48.302;11.914;2022-09-09T00:17:44;3.65;;;1.30;;
29414;SDS011;20303;48.302;11.914;2022-09-09T00:28:02;4.82;;;1.42;;
29414;SDS011;20303;48.302;11.914;2022-09-09T00:38:13;5.82;;;1.42;;
29414;SDS011;20303;48.302;11.914;2022-09-09T00:48:15;8.88;;;1.30;;
29414;SDS011;20303;48.302;11.914;2022-09-09T00:58:16;8.70;;;1.70;;
29414;SDS011;20303;48.302;11.914;2022-09-09T01:18:39;4.55;;;1.52;;
29414;SDS011;20303;48.302;11.914;2022-09-09T01:28:46;3.58;;;1.23;;
29414;SDS011;20303;48.302;11.914;2022-09-09T01:49:17;3.55;;;1.48;;
29414;SDS011;20303;48.302;11.914;2022-09-09T02:09:24;3.47;;;1.25;;
29414;SDS011;20303;48.302;11.914;2022-09-09T02:19:34;3.03;;;1.30;;
29414;SDS011;20303;48.302;11.914;2022-09-09T02:29:41;2.58;;;1.20;;
29414;SDS011;20303;48.302;11.914;2022-09-09T02:39:46;3.65;;;1.20;;
29414;SDS011;20303;48.302;11.914;2022-09-09T03:00:15;7.18;;;1.60;;
29414;SDS011;20303;48.302;11.914;2022-09-09T03:10:22;4.20;;;1.40;;
29414;SDS011;20303;48.302;11.914;2022-09-09T03:20:23;6.38;;;1.70;;
29414;SDS011;20303;48.302;11.914;2022-09-09T03:30:28;2.50;;;1.30;;
29414;SDS011;20303;48.302;11.914;2022-09-09T03:40:29;4.25;;;1.30;;
29414;SDS011;20303;48.302;11.914;2022-09-09T03:50:50;4.35;;;1.20;;
29414;SDS011;20303;48.302;11.914;2022-09-09T04:11:00;21.70;;;2.75;;
29414;SDS011;20303;48.302;11.914;2022-09-09T04:21:05;14.70;;;2.13;;
29414;SDS011;20303;48.302;11.914;2022-09-09T04:31:07;15.02;;;2.00;;
29414;SDS011;20303;48.302;11.914;2022-09-09T04:41:11;23.60;;;3.72;;
29414;SDS011;20303;48.302;11.914;2022-09-09T04:51:13;7.70;;;2.20;;
29414;SDS011;20303;48.302;11.914;2022-09-09T05:01:16;9.52;;;1.95;;
29414;SDS011;20303;48.302;11.914;2022-09-09T05:11:25;3.45;;;1.60;;
29414;SDS011;20303;48.302;11.914;2022-09-09T05:21:27;5.00;;;1.90;;
29414;SDS011;20303;48.302;11.914;2022-09-09T05:31:29;2.38;;;1.70;;
29414;SDS011;20303;48.302;11.914;2022-09-09T05:41:33;4.88;;;1.65;;
29414;SDS011;20303;48.302;11.914;2022-09-09T06:01:46;2.73;;;1.50;;
29414;SDS011;20303;48.302;11.914;2022-09-09T06:11:47;4.93;;;1.40;;
29414;SDS011;20303;48.302;11.914;2022-09-09T06:21:48;5.43;;;1.77;;
29414;SDS011;20303;48.302;11.914;2022-09-09T06:31:50;3.75;;;1.60;;
29414;SDS011;20303;48.302;11.914;2022-09-09T06:41:51;3.42;;;1.58;;
29414;SDS011;20303;48.302;11.914;2022-09-09T06:51:54;3.40;;;1.50;;
29414;SDS011;20303;48.302;11.914;2022-09-09T07:01:55;3.03;;;1.50;;
29414;SDS011;20303;48.302;11.914;2022-09-09T07:11:56;3.08;;;1.30;;
29414;SDS011;20303;48.302;11.914;2022-09-09T07:21:59;1.83;;;1.30;;
29414;SDS011;20303;48.302;11.914;2022-09-09T07:32:02;6.05;;;1.45;;
29414;SDS011;20303;48.302;11.914;2022-09-09T07:42:04;3.85;;;1.23;;
29414;SDS011;20303;48.302;11.914;2022-09-09T07:52:05;3.10;;;1.40;;
29414;SDS011;20303;48.302;11.914;2022-09-09T08:02:06;3.80;;;1.42;;
29414;SDS011;20303;48.302;11.914;2022-09-09T08:12:09;3.80;;;1.52;;
29414;SDS011;20303;48.302;11.914;2022-09-09T08:32:18;3.38;;;1.30;;
29414;SDS011;20303;48.302;11.914;2022-09-09T08:42:38;2.20;;;1.30;;
29414;SDS011;20303;48.302;11.914;2022-09-09T08:52:52;3.47;;;1.30;;
29414;SDS011;20303;48.302;11.914;2022-09-09T09:24:00;4.30;;;1.60;;
29414;SDS011;20303;48.302;11.914;2022-09-09T09:34:03;4.95;;;1.70;;
29414;SDS011;20303;48.302;11.914;2022-09-09T09:54:33;5.45;;;1.77;;
29414;SDS011;20303;48.302;11.914;2022-09-09T10:04:38;5.57;;;1.90;;
29414;SDS011;20303;48.302;11.914;2022-09-09T10:24:57;80.47;;;7.65;;
29414;SDS011;20303;48.302;11.914;2022-09-09T10:55:53;17.90;;;3.85;;
29414;SDS011;20303;48.302;11.914;2022-09-09T11:06:01;13.80;;;3.50;;
29414;SDS011;20303;48.302;11.914;2022-09-09T11:26:32;9.88;;;2.92;;
29414;SDS011;20303;48.302;11.914;2022-09-09T11:36:56;16.52;;;3.20;;
29414;SDS011;20303;48.302;11.914;2022-09-09T11:47:16;12.80;;;3.38;;
29414;SDS011;20303;48.302;11.914;2022-09-09T12:07:47;126.60;;;31.58;;
29414;SDS011;20303;48.302;11.914;2022-09-09T12:17:55;126.73;;;31.20;;
29414;SDS011;20303;48.302;11.914;2022-09-09T12:38:06;61.50;;;19.10;;
29414;SDS011;20303;48.302;11.914;2022-09-09T12:48:14;47.60;;;15.60;;
29414;SDS011;20303;48.302;11.914;2022-09-09T12:58:18;37.30;;;11.93;;
29414;SDS011;20303;48.302;11.914;2022-09-09T13:08:20;33.17;;;11.57;;
29414;SDS011;20303;48.302;11.914;2022-09-09T13:18:22;39.03;;;6.68;;
29414;SDS011;20303;48.302;11.914;2022-09-09T13:38:38;19.63;;;6.70;;
29414;SDS011;20303;48.302;11.914;2022-09-09T13:48:58;22.75;;;6.10;;
29414;SDS011;20303;48.302;11.914;2022-09-09T13:59:00;26.25;;;6.57;;
29414;SDS011;20303;48.302;11.914;2022-09-09T14:09:02;20.20;;;5.43;;
29414;SDS011;20303;48.302;11.914;2022-09-09T14:19:04;19.38;;;5.20;;
29414;SDS011;20303;48.302;11.914;2022-09-09T14:29:05;17.13;;;4.93;;
29414;SDS011;20303;48.302;11.914;2022-09-09T14:39:06;15.02;;;5.00;;
29414;SDS011;20303;48.302;11.914;2022-09-09T14:49:07;11.05;;;3.60;;
29414;SDS011;20303;48.302;11.914;2022-09-09T14:59:10;10.95;;;3.70;;
29414;SDS011;20303;48.302;11.914;2022-09-09T15:09:11;10.30;;;3.60;;
29414;SDS011;20303;48.302;11.914;2022-09-09T15:19:12;10.05;;;3.22;;
29414;SDS011;20303;48.302;11.914;2022-09-09T15:29:13;7.25;;;2.85;;
29414;SDS011;20303;48.302;11.914;2022-09-09T15:39:15;7.47;;;3.13;;
29414;SDS011;20303;48.302;11.914;2022-09-09T15:49:24;7.00;;;2.75;;
29414;SDS011;20303;48.302;11.914;2022-09-09T15:59:26;6.55;;;2.85;;
29414;SDS011;20303;48.302;11.914;2022-09-09T16:09:29;6.72;;;2.67;;
29414;SDS011;20303;48.302;11.914;2022-09-09T16:19:30;5.57;;;2.40;;
29414;SDS011;20303;48.302;11.914;2022-09-09T16:29:32;5.30;;;2.42;;
29414;SDS011;20303;48.302;11.914;2022-09-09T16:39:34;4.35;;;2.20;;
29414;SDS011;20303;48.302;11.914;2022-09-09T16:49:35;6.13;;;2.20;;
29414;SDS011;20303;48.302;11.914;2022-09-09T16:59:36;6.70;;;2.08;;
29414;SDS011;20303;48.302;11.914;2022-09-09T17:09:38;5.55;;;2.13;;
29414;SDS011;20303;48.302;11.914;2022-09-09T17:19:39;4.90;;;2.03;;
29414;SDS011;20303;48.302;11.914;2022-09-09T17:29:42;3.75;;;2.10;;
29414;SDS011;20303;48.302;11.914;2022-09-09T17:39:43;3.97;;;2.08;;
29414;SDS011;20303;48.302;11.914;2022-09-09T17:49:44;2.97;;;1.70;;
29414;SDS011;20303;48.302;11.914;2022-09-09T17:59:46;4.93;;;1.83;;
29414;SDS011;20303;48.302;11.914;2022-09-09T18:09:47;2.38;;;1.70;;
29414;SDS011;20303;48.302;11.914;2022-09-09T18:19:49;4.20;;;1.70;;
29414;SDS011;20303;48.302;11.914;2022-09-09T18:29:50;2.45;;;1.42;;
29414;SDS011;20303;48.302;11.914;2022-09-09T18:39:51;2.95;;;1.42;;
29414;SDS011;20303;48.302;11.914;2022-09-09T18:49:53;3.85;;;1.35;;
29414;SDS011;20303;48.302;11.914;2022-09-09T18:59:54;2.35;;;1.30;;
29414;SDS011;20303;48.302;11.914;2022-09-09T19:09:55;2.60;;;1.25;;
29414;SDS011;20303;48.302;11.914;2022-09-09T19:19:56;2.72;;;1.48;;
29414;SDS011;20303;48.302;11.914;2022-09-09T19:29:57;1.92;;;1.25;;
29414;SDS011;20303;48.302;11.914;2022-09-09T19:39:58;2.03;;;1.30;;
29414;SDS011;20303;48.302;11.914;2022-09-09T19:49:59;1.63;;;1.30;;
29414;SDS011;20303;48.302;11.914;2022-09-09T20:00:09;2.17;;;1.38;;
29414;SDS011;20303;48.302;11.914;2022-09-09T20:10:11;1.53;;;1.10;;
29414;SDS011;20303;48.302;11.914;2022-09-09T20:20:12;2.80;;;1.27;;
29414;SDS011;20303;48.302;11.914;2022-09-09T20:30:13;2.25;;;1.30;;
29414;SDS011;20303;48.302;11.914;2022-09-09T20:40:14;2.40;;;1.17;;
29414;SDS011;20303;48.302;11.914;2022-09-09T20:50:15;1.40;;;1.10;;
29414;SDS011;20303;48.302;11.914;2022-09-09T21:00:16;1.23;;;1.08;;
29414;SDS011;20303;48.302;11.914;2022-09-09T21:10:17;1.50;;;1.00;;
29414;SDS011;20303;48.302;11.914;2022-09-09T21:20:25;1.30;;;1.10;;
29414;SDS011;20303;48.302;11.914;2022-09-09T21:30:26;1.52;;;1.00;;
29414;SDS011;20303;48.302;11.914;2022-09-09T21:40:28;1.52;;;1.10;;
29414;SDS011;20303;48.302;11.914;2022-09-09T21:50:29;1.80;;;1.10;;
29414;SDS011;20303;48.302;11.914;2022-09-09T22:00:30;1.45;;;1.10;;
29414;SDS011;20303;48.302;11.914;2022-09-09T22:10:31;1.02;;;0.90;;
29414;SDS011;20303;48.302;11.914;2022-09-09T22:20:40;1.85;;;1.00;;
29414;SDS011;20303;48.302;11.914;2022-09-09T22:30:41;1.15;;;0.90;;
29414;SDS011;20303;48.302;11.914;2022-09-09T22:40:43;1.23;;;1.00;;
29414;SDS011;20303;48.302;11.914;2022-09-09T22:50:44;1.58;;;1.10;;
29414;SDS011;20303;48.302;11.914;2022-09-09T23:00:45;1.25;;;0.90;;
29414;SDS011;20303;48.302;11.914;2022-09-09T23:10:46;1.83;;;1.02;;
29414;SDS011;20303;48.302;11.914;2022-09-09T23:20:54;1.45;;;0.90;;
29414;SDS011;20303;48.302;11.914;2022-09-09T23:31:05;1.10;;;0.90;;
29414;SDS011;20303;48.302;11.914;2022-09-09T23:41:13;2.60;;;1.08;;
29414;SDS011;20303;48.302;11.914;2022-09-09T23:51:19;1.30;;;1.00;;
